sensor_id;sensor_type;location;lat;lon;timestamp;P1;durP1;ratioP1;P2;durP2;ratioP2
6358;SDS011;3212;51.460;11.868;2023-02-24T00:00:10;25.17;;;10.20;;
6358;SDS011;3212;51.460;11.868;2023-02-24T00:03:38;25.13;;;10.23;;
6358;SDS011;3212;51.460;11.868;2023-02-24T00:07:01;26.80;;;10.90;;
6358;SDS011;3212;51.460;11.868;2023-02-24T00:10:23;32.17;;;10.40;;
6358;SDS011;3212;51.460;11.868;2023-02-24T00:13:45;33.17;;;10.80;;
6358;SDS011;3212;51.460;11.868;2023-02-24T00:17:09;35.60;;;11.73;;
6358;SDS011;3212;51.460;11.868;2023-02-24T00:20:31;37.67;;;12.17;;
6358;SDS011;3212;51.460;11.868;2023-02-24T00:23:54;29.10;;;11.27;;
6358;SDS011;3212;51.460;11.868;2023-02-24T00:27:17;30.77;;;10.87;;
6358;SDS011;3212;51.460;11.868;2023-02-24T00:30:39;36.03;;;11.90;;
6358;SDS011;3212;51.460;11.868;2023-02-24T00:34:01;35.10;;;11.67;;
6358;SDS011;3212;51.460;11.868;2023-02-24T00:37:25;38.47;;;11.90;;
6358;SDS011;3212;51.460;11.868;2023-02-24T00:40:47;31.60;;;12.30;;
6358;SDS011;3212;51.460;11.868;2023-02-24T00:44:11;45.23;;;12.70;;
6358;SDS011;3212;51.460;11.868;2023-02-24T00:47:35;36.03;;;12.80;;
6358;SDS011;3212;51.460;11.868;2023-02-24T00:50:55;40.40;;;12.37;;
6358;SDS011;3212;51.460;11.868;2023-02-24T00:54:17;41.13;;;12.77;;
6358;SDS011;3212;51.460;11.868;2023-02-24T00:57:40;43.83;;;14.40;;
6358;SDS011;3212;51.460;11.868;2023-02-24T01:01:03;40.97;;;13.37;;
6358;SDS011;3212;51.460;11.868;2023-02-24T01:04:26;38.97;;;12.83;;
6358;SDS011;3212;51.460;11.868;2023-02-24T01:07:48;32.20;;;13.10;;
6358;SDS011;3212;51.460;11.868;2023-02-24T01:11:11;36.37;;;12.80;;
6358;SDS011;3212;51.460;11.868;2023-02-24T01:14:39;29.90;;;10.67;;
6358;SDS011;3212;51.460;11.868;2023-02-24T01:18:01;16.63;;;6.00;;
6358;SDS011;3212;51.460;11.868;2023-02-24T01:21:24;8.53;;;4.37;;
6358;SDS011;3212;51.460;11.868;2023-02-24T01:24:47;10.63;;;3.43;;
6358;SDS011;3212;51.460;11.868;2023-02-24T01:28:11;8.90;;;3.65;;
6358;SDS011;3212;51.460;11.868;2023-02-24T01:31:35;8.40;;;4.27;;
6358;SDS011;3212;51.460;11.868;2023-02-24T01:34:58;12.90;;;4.50;;
6358;SDS011;3212;51.460;11.868;2023-02-24T01:38:21;8.47;;;3.83;;
6358;SDS011;3212;51.460;11.868;2023-02-24T01:41:46;12.53;;;3.80;;
6358;SDS011;3212;51.460;11.868;2023-02-24T01:45:11;12.57;;;4.57;;
6358;SDS011;3212;51.460;11.868;2023-02-24T01:48:33;14.40;;;4.37;;
6358;SDS011;3212;51.460;11.868;2023-02-24T01:51:57;12.30;;;4.10;;
6358;SDS011;3212;51.460;11.868;2023-02-24T01:55:21;6.20;;;3.47;;
6358;SDS011;3212;51.460;11.868;2023-02-24T01:58:42;12.27;;;3.90;;
6358;SDS011;3212;51.460;11.868;2023-02-24T02:02:05;14.13;;;3.97;;
6358;SDS011;3212;51.460;11.868;2023-02-24T02:05:27;13.87;;;3.97;;
6358;SDS011;3212;51.460;11.868;2023-02-24T02:08:51;13.27;;;4.40;;
6358;SDS011;3212;51.460;11.868;2023-02-24T02:12:13;11.30;;;4.27;;
6358;SDS011;3212;51.460;11.868;2023-02-24T02:15:37;7.53;;;3.47;;
6358;SDS011;3212;51.460;11.868;2023-02-24T02:19:04;11.12;;;3.83;;
6358;SDS011;3212;51.460;11.868;2023-02-24T02:26:14;10.50;;;3.03;;
6358;SDS011;3212;51.460;11.868;2023-02-24T02:29:43;8.97;;;3.20;;
6358;SDS011;3212;51.460;11.868;2023-02-24T02:33:15;17.67;;;3.13;;
6358;SDS011;3212;51.460;11.868;2023-02-24T02:36:43;22.73;;;3.77;;
6358;SDS011;3212;51.460;11.868;2023-02-24T02:40:06;11.20;;;2.77;;
6358;SDS011;3212;51.460;11.868;2023-02-24T02:43:31;7.10;;;2.60;;
6358;SDS011;3212;51.460;11.868;2023-02-24T02:46:57;15.33;;;2.90;;
6358;SDS011;3212;51.460;11.868;2023-02-24T02:54:06;12.18;;;3.17;;
6358;SDS011;3212;51.460;11.868;2023-02-24T02:57:28;6.70;;;3.20;;
6358;SDS011;3212;51.460;11.868;2023-02-24T03:00:51;11.20;;;3.33;;
6358;SDS011;3212;51.460;11.868;2023-02-24T03:04:28;11.20;;;2.80;;
6358;SDS011;3212;51.460;11.868;2023-02-24T03:07:51;15.67;;;2.67;;
6358;SDS011;3212;51.460;11.868;2023-02-24T03:11:14;12.37;;;3.53;;
6358;SDS011;3212;51.460;11.868;2023-02-24T03:14:37;12.97;;;2.70;;
6358;SDS011;3212;51.460;11.868;2023-02-24T03:18:01;9.00;;;2.60;;
6358;SDS011;3212;51.460;11.868;2023-02-24T03:21:27;12.60;;;2.80;;
6358;SDS011;3212;51.460;11.868;2023-02-24T03:24:48;10.10;;;2.50;;
6358;SDS011;3212;51.460;11.868;2023-02-24T03:28:20;8.30;;;2.40;;
6358;SDS011;3212;51.460;11.868;2023-02-24T03:31:54;10.00;;;2.60;;
6358;SDS011;3212;51.460;11.868;2023-02-24T03:35:24;12.77;;;2.87;;
6358;SDS011;3212;51.460;11.868;2023-02-24T03:38:47;14.27;;;2.73;;
6358;SDS011;3212;51.460;11.868;2023-02-24T03:42:11;12.80;;;2.83;;
6358;SDS011;3212;51.460;11.868;2023-02-24T03:45:36;9.43;;;2.60;;
6358;SDS011;3212;51.460;11.868;2023-02-24T03:49:02;17.20;;;2.97;;
6358;SDS011;3212;51.460;11.868;2023-02-24T03:52:28;8.55;;;2.53;;
6358;SDS011;3212;51.460;11.868;2023-02-24T03:55:56;12.70;;;2.77;;
6358;SDS011;3212;51.460;11.868;2023-02-24T03:59:24;16.83;;;3.07;;
6358;SDS011;3212;51.460;11.868;2023-02-24T04:02:49;16.67;;;2.70;;
6358;SDS011;3212;51.460;11.868;2023-02-24T04:06:14;14.80;;;2.53;;
6358;SDS011;3212;51.460;11.868;2023-02-24T04:09:39;9.30;;;2.27;;
6358;SDS011;3212;51.460;11.868;2023-02-24T04:16:52;5.90;;;1.90;;
6358;SDS011;3212;51.460;11.868;2023-02-24T04:20:13;10.03;;;2.40;;
6358;SDS011;3212;51.460;11.868;2023-02-24T04:23:39;8.83;;;2.73;;
6358;SDS011;3212;51.460;11.868;2023-02-24T04:27:01;8.27;;;2.33;;
6358;SDS011;3212;51.460;11.868;2023-02-24T04:30:24;10.90;;;2.50;;
6358;SDS011;3212;51.460;11.868;2023-02-24T04:33:46;10.03;;;2.83;;
6358;SDS011;3212;51.460;11.868;2023-02-24T04:37:09;7.73;;;2.97;;
6358;SDS011;3212;51.460;11.868;2023-02-24T04:40:31;11.17;;;2.93;;
6358;SDS011;3212;51.460;11.868;2023-02-24T04:43:54;12.97;;;3.00;;
6358;SDS011;3212;51.460;11.868;2023-02-24T04:47:17;13.37;;;2.50;;
6358;SDS011;3212;51.460;11.868;2023-02-24T04:50:40;12.73;;;2.77;;
6358;SDS011;3212;51.460;11.868;2023-02-24T04:54:02;11.87;;;3.33;;
6358;SDS011;3212;51.460;11.868;2023-02-24T04:57:25;9.33;;;2.80;;
6358;SDS011;3212;51.460;11.868;2023-02-24T05:00:49;9.30;;;2.50;;
6358;SDS011;3212;51.460;11.868;2023-02-24T05:04:12;16.27;;;2.73;;
6358;SDS011;3212;51.460;11.868;2023-02-24T05:07:34;19.43;;;3.20;;
6358;SDS011;3212;51.460;11.868;2023-02-24T05:10:57;9.50;;;2.60;;
6358;SDS011;3212;51.460;11.868;2023-02-24T05:14:19;8.33;;;2.60;;
6358;SDS011;3212;51.460;11.868;2023-02-24T05:17:42;11.97;;;3.07;;
6358;SDS011;3212;51.460;11.868;2023-02-24T05:21:07;7.23;;;3.40;;
6358;SDS011;3212;51.460;11.868;2023-02-24T05:24:34;9.27;;;2.87;;
6358;SDS011;3212;51.460;11.868;2023-02-24T05:27:56;10.50;;;3.00;;
6358;SDS011;3212;51.460;11.868;2023-02-24T05:31:22;14.23;;;2.50;;
6358;SDS011;3212;51.460;11.868;2023-02-24T05:34:44;15.30;;;3.03;;
6358;SDS011;3212;51.460;11.868;2023-02-24T05:38:07;17.10;;;3.17;;
6358;SDS011;3212;51.460;11.868;2023-02-24T05:41:29;13.53;;;3.00;;
6358;SDS011;3212;51.460;11.868;2023-02-24T05:44:53;9.40;;;2.73;;
6358;SDS011;3212;51.460;11.868;2023-02-24T05:48:16;13.50;;;2.80;;
6358;SDS011;3212;51.460;11.868;2023-02-24T05:51:39;11.87;;;3.00;;
6358;SDS011;3212;51.460;11.868;2023-02-24T05:55:00;14.73;;;3.40;;
6358;SDS011;3212;51.460;11.868;2023-02-24T05:58:23;18.00;;;3.23;;
6358;SDS011;3212;51.460;11.868;2023-02-24T06:01:48;13.70;;;3.20;;
6358;SDS011;3212;51.460;11.868;2023-02-24T06:05:10;10.33;;;2.60;;
6358;SDS011;3212;51.460;11.868;2023-02-24T06:08:32;9.50;;;3.37;;
6358;SDS011;3212;51.460;11.868;2023-02-24T06:11:55;11.73;;;2.30;;
6358;SDS011;3212;51.460;11.868;2023-02-24T06:15:17;10.53;;;2.90;;
6358;SDS011;3212;51.460;11.868;2023-02-24T06:18:41;9.13;;;2.67;;
6358;SDS011;3212;51.460;11.868;2023-02-24T06:22:02;14.90;;;3.13;;
6358;SDS011;3212;51.460;11.868;2023-02-24T06:25:25;11.87;;;2.80;;
6358;SDS011;3212;51.460;11.868;2023-02-24T06:28:50;8.87;;;2.90;;
6358;SDS011;3212;51.460;11.868;2023-02-24T06:32:10;9.93;;;2.73;;
6358;SDS011;3212;51.460;11.868;2023-02-24T06:35:32;9.20;;;2.97;;
6358;SDS011;3212;51.460;11.868;2023-02-24T06:38:54;8.80;;;2.87;;
6358;SDS011;3212;51.460;11.868;2023-02-24T06:42:18;11.23;;;2.80;;
6358;SDS011;3212;51.460;11.868;2023-02-24T06:45:40;10.40;;;2.77;;
6358;SDS011;3212;51.460;11.868;2023-02-24T06:49:03;11.50;;;3.30;;
6358;SDS011;3212;51.460;11.868;2023-02-24T06:52:26;17.17;;;3.40;;
6358;SDS011;3212;51.460;11.868;2023-02-24T06:55:48;14.37;;;3.53;;
6358;SDS011;3212;51.460;11.868;2023-02-24T06:59:10;8.93;;;3.57;;
6358;SDS011;3212;51.460;11.868;2023-02-24T07:02:33;10.33;;;3.10;;
6358;SDS011;3212;51.460;11.868;2023-02-24T07:05:55;12.80;;;3.13;;
6358;SDS011;3212;51.460;11.868;2023-02-24T07:09:22;10.67;;;3.67;;
6358;SDS011;3212;51.460;11.868;2023-02-24T07:12:45;15.60;;;3.30;;
6358;SDS011;3212;51.460;11.868;2023-02-24T07:16:08;12.57;;;3.10;;
6358;SDS011;3212;51.460;11.868;2023-02-24T07:19:30;12.63;;;3.03;;
6358;SDS011;3212;51.460;11.868;2023-02-24T07:22:52;7.37;;;2.60;;
6358;SDS011;3212;51.460;11.868;2023-02-24T07:26:16;14.07;;;3.70;;
6358;SDS011;3212;51.460;11.868;2023-02-24T07:29:38;8.70;;;2.90;;
6358;SDS011;3212;51.460;11.868;2023-02-24T07:33:01;8.40;;;3.00;;
6358;SDS011;3212;51.460;11.868;2023-02-24T07:36:23;15.13;;;3.17;;
6358;SDS011;3212;51.460;11.868;2023-02-24T07:39:45;11.30;;;2.97;;
6358;SDS011;3212;51.460;11.868;2023-02-24T07:43:08;15.87;;;3.10;;
6358;SDS011;3212;51.460;11.868;2023-02-24T07:46:30;7.17;;;2.77;;
6358;SDS011;3212;51.460;11.868;2023-02-24T07:49:53;12.20;;;2.97;;
6358;SDS011;3212;51.460;11.868;2023-02-24T07:53:16;11.93;;;3.37;;
6358;SDS011;3212;51.460;11.868;2023-02-24T07:56:39;7.70;;;3.00;;
6358;SDS011;3212;51.460;11.868;2023-02-24T08:00:04;6.00;;;2.20;;
6358;SDS011;3212;51.460;11.868;2023-02-24T08:03:32;4.83;;;2.07;;
6358;SDS011;3212;51.460;11.868;2023-02-24T08:06:55;8.27;;;2.27;;
6358;SDS011;3212;51.460;11.868;2023-02-24T08:10:19;4.47;;;1.70;;
6358;SDS011;3212;51.460;11.868;2023-02-24T08:13:45;7.73;;;2.37;;
6358;SDS011;3212;51.460;11.868;2023-02-24T08:17:09;4.80;;;2.10;;
6358;SDS011;3212;51.460;11.868;2023-02-24T08:20:32;3.97;;;2.17;;
6358;SDS011;3212;51.460;11.868;2023-02-24T08:23:57;7.83;;;2.50;;
6358;SDS011;3212;51.460;11.868;2023-02-24T08:27:21;9.03;;;2.90;;
6358;SDS011;3212;51.460;11.868;2023-02-24T08:30:42;14.93;;;2.97;;
6358;SDS011;3212;51.460;11.868;2023-02-24T08:34:05;10.27;;;3.83;;
6358;SDS011;3212;51.460;11.868;2023-02-24T08:37:28;6.32;;;3.10;;
6358;SDS011;3212;51.460;11.868;2023-02-24T08:40:51;8.63;;;3.00;;
6358;SDS011;3212;51.460;11.868;2023-02-24T08:44:13;5.17;;;2.47;;
6358;SDS011;3212;51.460;11.868;2023-02-24T08:47:35;7.30;;;2.73;;
6358;SDS011;3212;51.460;11.868;2023-02-24T08:51:00;11.43;;;2.90;;
6358;SDS011;3212;51.460;11.868;2023-02-24T08:54:21;6.73;;;2.80;;
6358;SDS011;3212;51.460;11.868;2023-02-24T08:57:43;7.50;;;3.27;;
6358;SDS011;3212;51.460;11.868;2023-02-24T09:01:10;11.77;;;3.00;;
6358;SDS011;3212;51.460;11.868;2023-02-24T09:04:39;9.57;;;2.90;;
6358;SDS011;3212;51.460;11.868;2023-02-24T09:08:02;5.13;;;2.30;;
6358;SDS011;3212;51.460;11.868;2023-02-24T09:11:24;7.80;;;2.60;;
6358;SDS011;3212;51.460;11.868;2023-02-24T09:14:48;5.37;;;2.53;;
6358;SDS011;3212;51.460;11.868;2023-02-24T09:18:10;6.20;;;2.90;;
6358;SDS011;3212;51.460;11.868;2023-02-24T09:21:32;5.40;;;2.80;;
6358;SDS011;3212;51.460;11.868;2023-02-24T09:25:02;8.50;;;2.47;;
6358;SDS011;3212;51.460;11.868;2023-02-24T09:28:29;6.17;;;2.60;;
6358;SDS011;3212;51.460;11.868;2023-02-24T09:31:52;8.23;;;2.80;;
6358;SDS011;3212;51.460;11.868;2023-02-24T09:35:15;5.73;;;2.73;;
6358;SDS011;3212;51.460;11.868;2023-02-24T09:38:40;5.37;;;2.37;;
6358;SDS011;3212;51.460;11.868;2023-02-24T09:42:21;6.13;;;2.50;;
6358;SDS011;3212;51.460;11.868;2023-02-24T09:45:51;6.37;;;2.43;;
6358;SDS011;3212;51.460;11.868;2023-02-24T09:49:14;4.73;;;2.30;;
6358;SDS011;3212;51.460;11.868;2023-02-24T09:52:35;12.20;;;2.90;;
6358;SDS011;3212;51.460;11.868;2023-02-24T09:56:03;6.13;;;2.70;;
6358;SDS011;3212;51.460;11.868;2023-02-24T09:59:31;6.13;;;2.70;;
6358;SDS011;3212;51.460;11.868;2023-02-24T10:02:56;5.70;;;2.90;;
6358;SDS011;3212;51.460;11.868;2023-02-24T10:06:18;5.80;;;3.00;;
6358;SDS011;3212;51.460;11.868;2023-02-24T10:09:41;6.32;;;2.78;;
6358;SDS011;3212;51.460;11.868;2023-02-24T10:13:06;7.50;;;2.87;;
6358;SDS011;3212;51.460;11.868;2023-02-24T10:16:36;4.60;;;2.50;;
6358;SDS011;3212;51.460;11.868;2023-02-24T10:20:10;8.83;;;3.00;;
6358;SDS011;3212;51.460;11.868;2023-02-24T10:23:28;5.12;;;2.47;;
6358;SDS011;3212;51.460;11.868;2023-02-24T10:26:51;6.20;;;2.60;;
6358;SDS011;3212;51.460;11.868;2023-02-24T10:30:15;9.00;;;2.87;;
6358;SDS011;3212;51.460;11.868;2023-02-24T10:33:39;6.90;;;2.40;;
6358;SDS011;3212;51.460;11.868;2023-02-24T10:37:10;4.13;;;2.47;;
6358;SDS011;3212;51.460;11.868;2023-02-24T10:40:32;8.80;;;3.27;;
6358;SDS011;3212;51.460;11.868;2023-02-24T10:44:00;5.40;;;2.73;;
6358;SDS011;3212;51.460;11.868;2023-02-24T10:47:24;6.50;;;3.10;;
6358;SDS011;3212;51.460;11.868;2023-02-24T10:50:45;8.67;;;2.90;;
6358;SDS011;3212;51.460;11.868;2023-02-24T10:54:11;6.80;;;3.17;;
6358;SDS011;3212;51.460;11.868;2023-02-24T10:57:42;5.80;;;2.90;;
6358;SDS011;3212;51.460;11.868;2023-02-24T11:01:06;5.97;;;2.90;;
6358;SDS011;3212;51.460;11.868;2023-02-24T11:04:38;5.03;;;2.70;;
6358;SDS011;3212;51.460;11.868;2023-02-24T11:08:19;7.20;;;2.63;;
6358;SDS011;3212;51.460;11.868;2023-02-24T11:11:46;5.73;;;2.93;;
6358;SDS011;3212;51.460;11.868;2023-02-24T11:15:16;5.77;;;2.83;;
6358;SDS011;3212;51.460;11.868;2023-02-24T11:18:45;5.53;;;3.27;;
6358;SDS011;3212;51.460;11.868;2023-02-24T11:22:07;4.80;;;2.50;;
6358;SDS011;3212;51.460;11.868;2023-02-24T11:25:39;4.05;;;2.50;;
6358;SDS011;3212;51.460;11.868;2023-02-24T11:29:08;9.67;;;3.77;;
6358;SDS011;3212;51.460;11.868;2023-02-24T11:32:39;8.07;;;4.07;;
6358;SDS011;3212;51.460;11.868;2023-02-24T11:36:20;6.20;;;3.10;;
6358;SDS011;3212;51.460;11.868;2023-02-24T11:39:51;7.30;;;2.57;;
6358;SDS011;3212;51.460;11.868;2023-02-24T11:43:13;5.40;;;2.67;;
6358;SDS011;3212;51.460;11.868;2023-02-24T11:46:40;3.97;;;2.23;;
6358;SDS011;3212;51.460;11.868;2023-02-24T11:50:05;4.97;;;2.73;;
6358;SDS011;3212;51.460;11.868;2023-02-24T11:53:28;5.43;;;2.67;;
6358;SDS011;3212;51.460;11.868;2023-02-24T11:56:53;7.00;;;2.50;;
6358;SDS011;3212;51.460;11.868;2023-02-24T12:00:17;7.80;;;2.97;;
6358;SDS011;3212;51.460;11.868;2023-02-24T12:03:43;8.80;;;2.53;;
6358;SDS011;3212;51.460;11.868;2023-02-24T12:07:20;4.70;;;2.30;;
6358;SDS011;3212;51.460;11.868;2023-02-24T12:10:55;5.87;;;2.37;;
6358;SDS011;3212;51.460;11.868;2023-02-24T12:17:55;7.80;;;2.30;;
6358;SDS011;3212;51.460;11.868;2023-02-24T12:21:20;5.77;;;2.17;;
6358;SDS011;3212;51.460;11.868;2023-02-24T12:24:44;6.80;;;1.90;;
6358;SDS011;3212;51.460;11.868;2023-02-24T12:28:11;7.23;;;1.97;;
6358;SDS011;3212;51.460;11.868;2023-02-24T12:31:33;5.70;;;2.50;;
6358;SDS011;3212;51.460;11.868;2023-02-24T12:35:02;7.47;;;2.43;;
6358;SDS011;3212;51.460;11.868;2023-02-24T12:38:37;4.07;;;2.30;;
6358;SDS011;3212;51.460;11.868;2023-02-24T12:42:00;7.13;;;2.30;;
6358;SDS011;3212;51.460;11.868;2023-02-24T12:45:21;9.65;;;3.42;;
6358;SDS011;3212;51.460;11.868;2023-02-24T12:48:48;5.70;;;2.50;;
6358;SDS011;3212;51.460;11.868;2023-02-24T12:55:56;4.60;;;2.40;;
6358;SDS011;3212;51.460;11.868;2023-02-24T12:59:16;5.17;;;2.73;;
6358;SDS011;3212;51.460;11.868;2023-02-24T13:06:43;5.20;;;2.60;;
6358;SDS011;3212;51.460;11.868;2023-02-24T13:10:04;7.47;;;2.30;;
6358;SDS011;3212;51.460;11.868;2023-02-24T13:13:33;8.47;;;3.50;;
6358;SDS011;3212;51.460;11.868;2023-02-24T13:20:30;6.63;;;3.00;;
6358;SDS011;3212;51.460;11.868;2023-02-24T13:23:56;8.17;;;2.80;;
6358;SDS011;3212;51.460;11.868;2023-02-24T13:27:20;4.30;;;2.83;;
6358;SDS011;3212;51.460;11.868;2023-02-24T13:30:44;6.35;;;2.83;;
6358;SDS011;3212;51.460;11.868;2023-02-24T13:34:12;5.90;;;2.40;;
6358;SDS011;3212;51.460;11.868;2023-02-24T13:37:35;5.73;;;2.80;;
6358;SDS011;3212;51.460;11.868;2023-02-24T13:44:27;9.73;;;2.50;;
6358;SDS011;3212;51.460;11.868;2023-02-24T13:47:56;5.10;;;2.60;;
6358;SDS011;3212;51.460;11.868;2023-02-24T13:54:55;3.87;;;2.63;;
6358;SDS011;3212;51.460;11.868;2023-02-24T13:58:17;3.60;;;2.57;;
6358;SDS011;3212;51.460;11.868;2023-02-24T14:01:56;6.17;;;2.93;;
6358;SDS011;3212;51.460;11.868;2023-02-24T14:05:22;3.40;;;2.60;;
6358;SDS011;3212;51.460;11.868;2023-02-24T14:08:44;5.50;;;2.73;;
6358;SDS011;3212;51.460;11.868;2023-02-24T14:12:07;4.20;;;3.10;;
6358;SDS011;3212;51.460;11.868;2023-02-24T14:15:29;5.77;;;3.33;;
6358;SDS011;3212;51.460;11.868;2023-02-24T14:18:53;8.10;;;3.53;;
6358;SDS011;3212;51.460;11.868;2023-02-24T14:22:17;3.90;;;3.03;;
6358;SDS011;3212;51.460;11.868;2023-02-24T14:25:39;4.68;;;3.10;;
6358;SDS011;3212;51.460;11.868;2023-02-24T14:29:01;3.37;;;2.80;;
6358;SDS011;3212;51.460;11.868;2023-02-24T14:32:25;4.17;;;2.90;;
6358;SDS011;3212;51.460;11.868;2023-02-24T14:35:47;9.07;;;2.80;;
6358;SDS011;3212;51.460;11.868;2023-02-24T14:39:15;4.60;;;3.10;;
6358;SDS011;3212;51.460;11.868;2023-02-24T14:42:36;2.70;;;2.40;;
6358;SDS011;3212;51.460;11.868;2023-02-24T14:46:02;7.47;;;3.20;;
6358;SDS011;3212;51.460;11.868;2023-02-24T14:49:22;4.20;;;3.07;;
6358;SDS011;3212;51.460;11.868;2023-02-24T14:52:45;4.27;;;3.17;;
6358;SDS011;3212;51.460;11.868;2023-02-24T14:56:07;5.15;;;3.12;;
6358;SDS011;3212;51.460;11.868;2023-02-24T14:59:32;4.57;;;3.10;;
6358;SDS011;3212;51.460;11.868;2023-02-24T15:03:03;5.00;;;3.37;;
6358;SDS011;3212;51.460;11.868;2023-02-24T15:06:29;5.67;;;3.20;;
6358;SDS011;3212;51.460;11.868;2023-02-24T15:09:51;6.73;;;3.30;;
6358;SDS011;3212;51.460;11.868;2023-02-24T15:13:15;3.83;;;2.43;;
6358;SDS011;3212;51.460;11.868;2023-02-24T15:16:38;3.80;;;2.70;;
6358;SDS011;3212;51.460;11.868;2023-02-24T15:20:00;3.63;;;2.60;;
6358;SDS011;3212;51.460;11.868;2023-02-24T15:23:25;3.30;;;2.33;;
6358;SDS011;3212;51.460;11.868;2023-02-24T15:26:50;6.03;;;2.93;;
6358;SDS011;3212;51.460;11.868;2023-02-24T15:33:56;4.40;;;2.27;;
6358;SDS011;3212;51.460;11.868;2023-02-24T15:37:24;3.03;;;2.72;;
6358;SDS011;3212;51.460;11.868;2023-02-24T15:40:50;3.97;;;2.50;;
6358;SDS011;3212;51.460;11.868;2023-02-24T15:47:44;4.75;;;2.75;;
6358;SDS011;3212;51.460;11.868;2023-02-24T15:51:05;5.23;;;3.20;;
6358;SDS011;3212;51.460;11.868;2023-02-24T15:54:29;3.50;;;3.03;;
6358;SDS011;3212;51.460;11.868;2023-02-24T15:57:59;5.07;;;2.47;;
6358;SDS011;3212;51.460;11.868;2023-02-24T16:01:20;5.57;;;3.00;;
6358;SDS011;3212;51.460;11.868;2023-02-24T16:04:43;3.93;;;3.30;;
6358;SDS011;3212;51.460;11.868;2023-02-24T16:08:08;4.40;;;3.30;;
6358;SDS011;3212;51.460;11.868;2023-02-24T16:11:37;5.50;;;3.40;;
6358;SDS011;3212;51.460;11.868;2023-02-24T16:14:50;6.80;;;3.53;;
6358;SDS011;3212;51.460;11.868;2023-02-24T16:18:19;4.37;;;3.50;;
6358;SDS011;3212;51.460;11.868;2023-02-24T16:21:41;5.97;;;3.67;;
6358;SDS011;3212;51.460;11.868;2023-02-24T16:25:04;4.90;;;4.00;;
6358;SDS011;3212;51.460;11.868;2023-02-24T16:28:29;6.50;;;3.30;;
6358;SDS011;3212;51.460;11.868;2023-02-24T16:31:50;4.70;;;3.70;;
6358;SDS011;3212;51.460;11.868;2023-02-24T16:35:13;4.63;;;3.70;;
6358;SDS011;3212;51.460;11.868;2023-02-24T16:38:35;5.93;;;3.67;;
6358;SDS011;3212;51.460;11.868;2023-02-24T16:41:58;5.20;;;3.87;;
6358;SDS011;3212;51.460;11.868;2023-02-24T16:45:21;7.73;;;4.20;;
6358;SDS011;3212;51.460;11.868;2023-02-24T16:48:44;4.80;;;3.87;;
6358;SDS011;3212;51.460;11.868;2023-02-24T16:52:06;5.07;;;3.60;;
6358;SDS011;3212;51.460;11.868;2023-02-24T16:55:29;5.50;;;4.10;;
6358;SDS011;3212;51.460;11.868;2023-02-24T16:58:52;5.10;;;4.13;;
6358;SDS011;3212;51.460;11.868;2023-02-24T17:02:16;7.00;;;4.30;;
6358;SDS011;3212;51.460;11.868;2023-02-24T17:05:37;6.77;;;4.10;;
6358;SDS011;3212;51.460;11.868;2023-02-24T17:08:59;6.40;;;4.20;;
6358;SDS011;3212;51.460;11.868;2023-02-24T17:12:22;6.77;;;4.13;;
6358;SDS011;3212;51.460;11.868;2023-02-24T17:15:45;5.10;;;3.97;;
6358;SDS011;3212;51.460;11.868;2023-02-24T17:19:07;7.00;;;4.10;;
6358;SDS011;3212;51.460;11.868;2023-02-24T17:22:30;6.90;;;4.17;;
6358;SDS011;3212;51.460;11.868;2023-02-24T17:25:54;7.47;;;4.90;;
6358;SDS011;3212;51.460;11.868;2023-02-24T17:29:15;6.77;;;4.57;;
6358;SDS011;3212;51.460;11.868;2023-02-24T17:32:38;7.47;;;4.53;;
6358;SDS011;3212;51.460;11.868;2023-02-24T17:36:00;6.30;;;4.40;;
6358;SDS011;3212;51.460;11.868;2023-02-24T17:39:22;6.00;;;4.20;;
6358;SDS011;3212;51.460;11.868;2023-02-24T17:42:45;9.83;;;5.27;;
6358;SDS011;3212;51.460;11.868;2023-02-24T17:46:07;6.90;;;4.67;;
6358;SDS011;3212;51.460;11.868;2023-02-24T17:49:30;7.73;;;5.23;;
6358;SDS011;3212;51.460;11.868;2023-02-24T17:52:53;8.60;;;4.30;;
6358;SDS011;3212;51.460;11.868;2023-02-24T17:56:15;6.83;;;5.00;;
6358;SDS011;3212;51.460;11.868;2023-02-24T17:59:38;8.30;;;5.60;;
6358;SDS011;3212;51.460;11.868;2023-02-24T18:03:01;8.80;;;5.20;;
6358;SDS011;3212;51.460;11.868;2023-02-24T18:06:23;8.43;;;4.77;;
6358;SDS011;3212;51.460;11.868;2023-02-24T18:09:45;8.57;;;5.30;;
6358;SDS011;3212;51.460;11.868;2023-02-24T18:13:08;8.37;;;5.50;;
6358;SDS011;3212;51.460;11.868;2023-02-24T18:16:30;8.20;;;5.43;;
6358;SDS011;3212;51.460;11.868;2023-02-24T18:19:53;9.07;;;5.43;;
6358;SDS011;3212;51.460;11.868;2023-02-24T18:23:16;9.37;;;5.03;;
6358;SDS011;3212;51.460;11.868;2023-02-24T18:26:40;10.20;;;5.10;;
6358;SDS011;3212;51.460;11.868;2023-02-24T18:30:02;9.50;;;5.57;;
6358;SDS011;3212;51.460;11.868;2023-02-24T18:33:24;9.33;;;5.60;;
6358;SDS011;3212;51.460;11.868;2023-02-24T18:36:47;11.30;;;5.97;;
6358;SDS011;3212;51.460;11.868;2023-02-24T18:40:09;8.93;;;5.73;;
6358;SDS011;3212;51.460;11.868;2023-02-24T18:43:32;11.40;;;5.70;;
6358;SDS011;3212;51.460;11.868;2023-02-24T18:46:55;9.83;;;6.00;;
6358;SDS011;3212;51.460;11.868;2023-02-24T18:50:17;11.67;;;6.00;;
6358;SDS011;3212;51.460;11.868;2023-02-24T18:53:39;12.47;;;6.80;;
6358;SDS011;3212;51.460;11.868;2023-02-24T18:57:02;13.20;;;6.10;;
6358;SDS011;3212;51.460;11.868;2023-02-24T19:00:25;14.77;;;6.80;;
6358;SDS011;3212;51.460;11.868;2023-02-24T19:03:48;12.53;;;6.40;;
6358;SDS011;3212;51.460;11.868;2023-02-24T19:07:10;10.30;;;6.13;;
6358;SDS011;3212;51.460;11.868;2023-02-24T19:10:34;10.97;;;6.27;;
6358;SDS011;3212;51.460;11.868;2023-02-24T19:13:56;12.00;;;5.93;;
6358;SDS011;3212;51.460;11.868;2023-02-24T19:17:19;10.13;;;6.10;;
6358;SDS011;3212;51.460;11.868;2023-02-24T19:20:42;11.03;;;5.70;;
6358;SDS011;3212;51.460;11.868;2023-02-24T19:24:04;12.50;;;6.70;;
6358;SDS011;3212;51.460;11.868;2023-02-24T19:27:27;12.67;;;6.60;;
6358;SDS011;3212;51.460;11.868;2023-02-24T19:30:50;9.83;;;5.90;;
6358;SDS011;3212;51.460;11.868;2023-02-24T19:34:12;10.73;;;6.37;;
6358;SDS011;3212;51.460;11.868;2023-02-24T19:41:15;13.50;;;6.90;;
6358;SDS011;3212;51.460;11.868;2023-02-24T19:44:37;13.90;;;7.07;;
6358;SDS011;3212;51.460;11.868;2023-02-24T19:48:01;15.13;;;6.90;;
6358;SDS011;3212;51.460;11.868;2023-02-24T19:51:24;16.70;;;7.33;;
6358;SDS011;3212;51.460;11.868;2023-02-24T19:54:46;14.95;;;7.75;;
6358;SDS011;3212;51.460;11.868;2023-02-24T19:58:09;15.13;;;7.30;;
6358;SDS011;3212;51.460;11.868;2023-02-24T20:01:32;15.43;;;7.80;;
6358;SDS011;3212;51.460;11.868;2023-02-24T20:04:56;14.90;;;6.87;;
6358;SDS011;3212;51.460;11.868;2023-02-24T20:08:18;14.98;;;7.70;;
6358;SDS011;3212;51.460;11.868;2023-02-24T20:11:41;12.33;;;7.07;;
6358;SDS011;3212;51.460;11.868;2023-02-24T20:15:04;11.10;;;7.30;;
6358;SDS011;3212;51.460;11.868;2023-02-24T20:18:28;14.75;;;7.37;;
6358;SDS011;3212;51.460;11.868;2023-02-24T20:21:51;13.80;;;7.57;;
6358;SDS011;3212;51.460;11.868;2023-02-24T20:25:14;16.17;;;7.70;;
6358;SDS011;3212;51.460;11.868;2023-02-24T20:28:37;18.47;;;8.30;;
6358;SDS011;3212;51.460;11.868;2023-02-24T20:32:01;15.40;;;8.10;;
6358;SDS011;3212;51.460;11.868;2023-02-24T20:35:24;15.90;;;8.57;;
6358;SDS011;3212;51.460;11.868;2023-02-24T20:38:46;16.93;;;8.40;;
6358;SDS011;3212;51.460;11.868;2023-02-24T20:42:08;16.40;;;7.90;;
6358;SDS011;3212;51.460;11.868;2023-02-24T20:45:32;13.40;;;7.97;;
6358;SDS011;3212;51.460;11.868;2023-02-24T20:48:56;15.77;;;8.07;;
6358;SDS011;3212;51.460;11.868;2023-02-24T20:52:18;17.40;;;8.37;;
6358;SDS011;3212;51.460;11.868;2023-02-24T20:55:41;18.13;;;7.77;;
6358;SDS011;3212;51.460;11.868;2023-02-24T20:59:05;13.17;;;7.60;;
6358;SDS011;3212;51.460;11.868;2023-02-24T21:02:27;15.27;;;7.77;;
6358;SDS011;3212;51.460;11.868;2023-02-24T21:05:51;14.90;;;7.80;;
6358;SDS011;3212;51.460;11.868;2023-02-24T21:09:14;14.80;;;8.10;;
6358;SDS011;3212;51.460;11.868;2023-02-24T21:12:37;15.97;;;7.87;;
6358;SDS011;3212;51.460;11.868;2023-02-24T21:16:00;16.30;;;8.13;;
6358;SDS011;3212;51.460;11.868;2023-02-24T21:19:24;16.70;;;8.40;;
6358;SDS011;3212;51.460;11.868;2023-02-24T21:22:48;16.57;;;8.30;;